ADDS METAR Data INFO
IDs: Format: Raw Decoded Include TAF

Data at: 1313 UTC 11 Dec 2017

KTXK 111253Z 22005KT 10SM CLR 03/M02 A3023 RMK AO2 SLP236 T00331022
KTXK 111153Z 22005KT 10SM CLR 04/M02 A3023 RMK AO2 SLP235 T00441022 10078 20039 58003
KTXK 111053Z AUTO 22006KT 10SM CLR 04/M02 A3024 RMK AO2 SLP238 T00441022
KTXK 110953Z AUTO 22007KT 10SM CLR 05/M02 A3024 RMK AO2 SLP237 T00501022
KTXK 110853Z AUTO 22005KT 10SM CLR 05/M03 A3024 RMK AO2 SLP237 T00501028 55001
KTXK 110753Z AUTO 22004KT 10SM CLR 06/M02 A3023 RMK AO2 SLP234 T00611022
KTXK 110653Z AUTO 22006KT 10SM CLR 06/M02 A3024 RMK AO2 SLP240 T00611022
KTXK 110553Z AUTO 22006KT 10SM CLR 08/M02 A3024 RMK AO2 SLP239 T00781022 10122 20067 401781017 50001
KTXK 110453Z AUTO 22007KT 10SM CLR 07/M01 A3025 RMK AO2 SLP243 T00721011
KTXK 110353Z 22007KT 10SM CLR 07/M02 A3024 RMK AO2 SLP241 T00721022
KTXK 110253Z 21007KT 10SM CLR 09/M02 A3024 RMK AO2 SLP239 T00941017 58005
KTXK 110153Z 22007KT 10SM CLR 10/M02 A3025 RMK AO2 SLP243 T01001022
KTXK 110053Z 21006KT 10SM CLR 11/M02 A3025 RMK AO2 SLP245 T01111017
KTXK 102353Z 21006KT 10SM CLR 12/M02 A3025 RMK AO2 SLP244 T01221022 10178 20122 53002
KTXK 102253Z 22007KT 10SM CLR 15/M03 A3024 RMK AO2 SLP242 T01501028
KTXK 102153Z 22011KT 10SM CLR 18/M03 A3023 RMK AO2 SLP237 T01781033
KTXK 102053Z 23013KT 10SM CLR 18/M04 A3024 RMK AO2 SLP241 T01781039 56029
KTXK 101953Z 23012KT 10SM CLR 17/M03 A3027 RMK AO2 SLP248 T01721033
KTXK 101853Z 23011KT 10SM CLR 16/M02 A3030 RMK AO2 SLP259 T01561022
KTXK 101753Z 24012KT 10SM CLR 14/M02 A3033 RMK AO2 SLP270 T01391022 10139 21011 58014
KTXK 101653Z 24010KT 10SM CLR 12/M02 A3037 RMK AO2 SLP283 T01221022
KTXK 101553Z 25007KT 10SM CLR 08/M02 A3038 RMK AO2 SLP287 T00781017
KTXK 101453Z 22007KT 10SM CLR 03/M02 A3037 RMK AO2 SLP285 T00331017 51010
KTXK 101353Z 21003KT 10SM CLR 00/M03 A3036 RMK AO2 SLP283 T00001028
KTXK 101253Z 23003KT 10SM CLR 00/M03 A3035 RMK AO2 SLP280 T00001033
KTXK 101153Z 20004KT 10SM CLR M01/M04 A3034 RMK AO2 SLP276 T10061039 10039 21017 53002
KTXK 101053Z AUTO 23003KT 10SM CLR M01/M03 A3033 RMK AO2 SLP271 T10061033
KTXK 100953Z AUTO 20004KT 10SM CLR M01/M04 A3033 RMK AO2 SLP272 T10061039
KTXK 100853Z AUTO 21003KT 10SM CLR 01/M03 A3034 RMK AO2 SLP273 T00111033 50002
KTXK 100753Z AUTO 22003KT 10SM CLR 01/M03 A3034 RMK AO2 SLP274 T00111033
KTXK 100653Z AUTO 21004KT 10SM CLR 02/M03 A3034 RMK AO2 SLP274 T00171033
KTXK 100553Z AUTO 20003KT 10SM CLR 04/M03 A3033 RMK AO2 SLP271 T00391033 10094 20006 401391033 51017
KTXK 100453Z AUTO 21003KT 10SM CLR 03/M04 A3032 RMK AO2 SLP266 T00331039
KTXK 100353Z 00000KT 10SM CLR 04/M04 A3030 RMK AO2 SLP260 T00391039
KTXK 100253Z 36003KT 10SM CLR 08/M05 A3028 RMK AO2 SLP254 T00781050 51020
KTXK 100153Z 30005KT 10SM CLR 07/M04 A3027 RMK AO2 SLP251 T00721044